createdAt,value
2024-04-21T00:02:21.531Z,98753.13
2024-04-21T00:04:49.492Z,98753.98
2024-04-21T00:07:17.148Z,98754.27
2024-04-21T00:09:44.973Z,98758.16
2024-04-21T00:12:12.534Z,98757.30
2024-04-21T00:14:40.179Z,98764.69
2024-04-21T00:17:07.704Z,98759.16
2024-04-21T00:19:35.474Z,98766.09
2024-04-21T00:22:02.963Z,98759.48
2024-04-21T00:24:31.481Z,98761.70
2024-04-21T00:26:58.994Z,98767.63
2024-04-21T00:29:26.508Z,98764.64
2024-04-21T00:31:53.997Z,98766.13
2024-04-21T00:34:21.489Z,98771.54
2024-04-21T00:36:50.724Z,98774.67
2024-04-21T00:39:18.296Z,98773.45
2024-04-21T00:41:46.057Z,98773.54
2024-04-21T00:44:13.593Z,98773.34
2024-04-21T00:46:41.521Z,98774.57
2024-04-21T00:49:10.434Z,98770.04
2024-04-21T00:51:38.911Z,98766.27
2024-04-21T00:54:07.531Z,98766.30
2024-04-21T00:56:35.586Z,98762.04
2024-04-21T00:59:03.604Z,98756.27
2024-04-21T01:01:31.719Z,98755.52
2024-04-21T01:04:00.263Z,98751.67
2024-04-21T01:06:28.057Z,98753.75
2024-04-21T01:08:55.618Z,98752.95
2024-04-21T01:11:23.432Z,98753.98
2024-04-21T01:13:51.229Z,98758.02
2024-04-21T01:16:23.140Z,98764.33
2024-04-21T01:18:50.699Z,98771.77
2024-04-21T01:21:19.347Z,98767.52
2024-04-21T01:23:46.908Z,98766.52
2024-04-21T01:26:14.404Z,98772.13
2024-04-21T01:28:41.833Z,98768.66
2024-04-21T01:31:09.375Z,98768.68
2024-04-21T01:33:36.930Z,98766.94
2024-04-21T01:36:04.610Z,98768.89
2024-04-21T01:38:32.220Z,98768.73
2024-04-21T01:40:59.666Z,98766.25
2024-04-21T01:43:27.265Z,98765.36
2024-04-21T01:45:54.826Z,98766.59
2024-04-21T01:48:22.412Z,98765.98
2024-04-21T01:50:49.875Z,98764.63
2024-04-21T01:53:17.730Z,98766.14
2024-04-21T01:55:45.275Z,98764.15
2024-04-21T01:58:12.893Z,98767.55
2024-04-21T02:00:40.854Z,98767.65
2024-04-21T02:03:08.432Z,98766.09
2024-04-21T02:05:36.526Z,98761.00
2024-04-21T02:08:04.363Z,98764.95
2024-04-21T02:10:31.800Z,98762.45
2024-04-21T02:12:59.365Z,98760.98
2024-04-21T02:15:26.976Z,98758.94
2024-04-21T02:17:54.510Z,98758.00
2024-04-21T02:20:21.994Z,98759.70
2024-04-21T02:22:49.493Z,98763.15
2024-04-21T02:25:18.236Z,98767.12
2024-04-21T02:27:46.216Z,-1.00
2024-04-21T02:30:13.889Z,-1.00
2024-04-21T02:32:41.445Z,-1.00
2024-04-21T02:35:08.995Z,-1.00
2024-04-21T02:37:36.539Z,-1.00
2024-04-21T02:40:04.384Z,-1.00
2024-04-21T02:42:31.949Z,-1.00
2024-04-21T02:45:00.478Z,-1.00
2024-04-21T02:47:28.076Z,-1.00
2024-04-21T02:49:55.538Z,-1.00
2024-04-21T02:52:23.153Z,-1.00
2024-04-21T02:54:50.657Z,-1.00
2024-04-21T02:57:18.352Z,-1.00
2024-04-21T02:59:45.774Z,-1.00
2024-04-21T03:02:13.327Z,-1.00
2024-04-21T03:04:40.914Z,-1.00
2024-04-21T03:07:08.596Z,-1.00
2024-04-21T03:09:36.128Z,-1.00
2024-04-21T03:12:03.762Z,-1.00
2024-04-21T03:14:31.895Z,-1.00
2024-04-21T03:16:59.453Z,-1.00
2024-04-21T03:19:27.270Z,-1.00
2024-04-21T03:21:55.242Z,-1.00
2024-04-21T03:24:23.329Z,-1.00
2024-04-21T03:26:51.137Z,-1.00
2024-04-21T03:29:18.620Z,-1.00
2024-04-21T03:31:46.174Z,-1.00
2024-04-21T03:34:13.758Z,-1.00
2024-04-21T03:36:41.295Z,-1.00
2024-04-21T03:39:08.814Z,-1.00
2024-04-21T03:41:36.267Z,-1.00
2024-04-21T03:44:04.547Z,-1.00
2024-04-21T03:46:32.076Z,-1.00
2024-04-21T03:48:59.611Z,-1.00
2024-04-21T03:51:27.211Z,-1.00
2024-04-21T03:53:54.803Z,-1.00
2024-04-21T03:56:22.304Z,-1.00
2024-04-21T03:58:49.794Z,-1.00
2024-04-21T04:01:17.410Z,-1.00
2024-04-21T04:03:45.199Z,-1.00
2024-04-21T04:06:12.747Z,-1.00
2024-04-21T04:08:40.242Z,-1.00
2024-04-21T04:11:07.842Z,-1.00
2024-04-21T04:13:35.309Z,-1.00
2024-04-21T04:16:03.003Z,-1.00
2024-04-21T04:18:30.576Z,-1.00
2024-04-21T04:20:58.075Z,-1.00
2024-04-21T04:23:25.595Z,-1.00
2024-04-21T04:25:53.127Z,-1.00
2024-04-21T04:28:21.534Z,-1.00
2024-04-21T04:30:49.367Z,-1.00
2024-04-21T04:33:17.025Z,-1.00
2024-04-21T04:35:45.535Z,-1.00
2024-04-21T04:38:13.052Z,-1.00
2024-04-21T04:40:40.588Z,-1.00
2024-04-21T04:43:08.148Z,-1.00
2024-04-21T04:45:36.391Z,-1.00
2024-04-21T04:48:04.649Z,-1.00
2024-04-21T04:50:32.410Z,-1.00
2024-04-21T04:53:00.234Z,-1.00
2024-04-21T04:55:27.904Z,-1.00
2024-04-21T04:57:55.962Z,-1.00
2024-04-21T05:00:23.753Z,-1.00
2024-04-21T05:02:51.425Z,-1.00
2024-04-21T05:05:19.212Z,-1.00
2024-04-21T05:07:46.896Z,-1.00
2024-04-21T05:10:15.169Z,-1.00
2024-04-21T05:12:42.772Z,-1.00
2024-04-21T05:15:10.337Z,-1.00
2024-04-21T05:17:37.975Z,-1.00
2024-04-21T05:20:06.834Z,-1.00
2024-04-21T05:22:34.402Z,-1.00
2024-04-21T05:25:02.040Z,-1.00
2024-04-21T05:27:32.072Z,-1.00
2024-04-21T05:30:00.891Z,-1.00
2024-04-21T05:32:28.628Z,-1.00
2024-04-21T05:34:56.248Z,-1.00
2024-04-21T05:37:23.773Z,-1.00
2024-04-21T05:39:52.149Z,-1.00
2024-04-21T05:42:19.660Z,-1.00
2024-04-21T05:44:49.578Z,-1.00
2024-04-21T05:47:17.832Z,-1.00
2024-04-21T05:49:46.032Z,-1.00
2024-04-21T05:52:15.794Z,-1.00
2024-04-21T05:54:43.491Z,-1.00
2024-04-21T05:57:11.027Z,-1.00
2024-04-21T05:59:38.605Z,-1.00
2024-04-21T06:02:06.558Z,-1.00
2024-04-21T06:04:34.239Z,-1.00
2024-04-21T06:07:01.931Z,-1.00
2024-04-21T06:09:29.540Z,-1.00
2024-04-21T06:11:57.147Z,-1.00
2024-04-21T06:14:24.648Z,-1.00
2024-04-21T06:16:52.361Z,-1.00
2024-04-21T06:19:21.407Z,-1.00
2024-04-21T06:21:49.064Z,-1.00
2024-04-21T06:24:16.681Z,-1.00
2024-04-21T06:26:45.992Z,-1.00
2024-04-21T06:29:15.590Z,-1.00
2024-04-21T06:31:43.787Z,-1.00
2024-04-21T06:34:11.523Z,-1.00
2024-04-21T06:36:39.095Z,-1.00
2024-04-21T06:39:06.891Z,-1.00
2024-04-21T06:41:34.406Z,-1.00
2024-04-21T06:44:01.926Z,-1.00
2024-04-21T06:46:29.465Z,-1.00
2024-04-21T06:48:57.177Z,-1.00
2024-04-21T06:51:25.781Z,-1.00
2024-04-21T06:53:53.332Z,-1.00
2024-04-21T06:56:20.849Z,-1.00
2024-04-21T06:58:48.292Z,-1.00
2024-04-21T07:01:15.935Z,-1.00
2024-04-21T07:03:43.749Z,-1.00
2024-04-21T07:06:11.316Z,-1.00
2024-04-21T07:08:38.814Z,-1.00
2024-04-21T07:11:06.632Z,-1.00
2024-04-21T07:13:34.343Z,-1.00
2024-04-21T07:16:01.893Z,-1.00
2024-04-21T07:18:29.520Z,-1.00
2024-04-21T07:20:57.071Z,-1.00
2024-04-21T07:23:24.584Z,-1.00
2024-04-21T07:25:52.161Z,-1.00
2024-04-21T07:28:19.682Z,-1.00
2024-04-21T07:30:48.414Z,-1.00
2024-04-21T07:33:15.968Z,-1.00
2024-04-21T07:35:44.389Z,-1.00
2024-04-21T07:38:11.861Z,-1.00
2024-04-21T07:40:39.652Z,-1.00
2024-04-21T07:43:07.126Z,-1.00
2024-04-21T07:45:34.590Z,-1.00
2024-04-21T07:48:02.950Z,-1.00
2024-04-21T07:50:33.995Z,-1.00
2024-04-21T07:53:01.462Z,-1.00
2024-04-21T07:55:29.185Z,-1.00
2024-04-21T07:57:56.711Z,-1.00
2024-04-21T08:00:24.212Z,-1.00
2024-04-21T08:02:51.748Z,-1.00
2024-04-21T08:05:19.319Z,-1.00
2024-04-21T08:07:46.894Z,-1.00
2024-04-21T08:10:14.513Z,-1.00
2024-04-21T08:12:42.001Z,-1.00
2024-04-21T08:15:09.536Z,-1.00
2024-04-21T08:17:37.412Z,-1.00
2024-04-21T08:20:06.175Z,-1.00
2024-04-21T08:22:34.292Z,-1.00
2024-04-21T08:25:03.076Z,-1.00
2024-04-21T08:27:30.563Z,-1.00
2024-04-21T08:29:58.104Z,-1.00
2024-04-21T08:32:25.747Z,-1.00
2024-04-21T08:34:53.493Z,-1.00
2024-04-21T08:37:24.554Z,-1.00
2024-04-21T08:39:52.387Z,-1.00
2024-04-21T08:42:20.013Z,-1.00
2024-04-21T08:44:49.922Z,-1.00
2024-04-21T08:47:17.482Z,-1.00
2024-04-21T08:49:45.206Z,-1.00
2024-04-21T08:52:12.734Z,-1.00
2024-04-21T08:54:40.361Z,-1.00
2024-04-21T08:57:08.182Z,-1.00
2024-04-21T08:59:41.928Z,-1.00
2024-04-21T09:02:13.345Z,-1.00
2024-04-21T09:04:45.918Z,-1.00
2024-04-21T09:07:14.149Z,-1.00
2024-04-21T09:09:41.650Z,-1.00
2024-04-21T09:12:09.299Z,-1.00
2024-04-21T09:14:43.739Z,-1.00
2024-04-21T09:17:11.653Z,-1.00
2024-04-21T09:19:39.975Z,-1.00
2024-04-21T09:22:07.569Z,-1.00
2024-04-21T09:24:35.282Z,-1.00
2024-04-21T09:27:02.868Z,-1.00
2024-04-21T09:29:30.375Z,-1.00
2024-04-21T09:31:57.990Z,-1.00
2024-04-21T09:34:25.572Z,-1.00
2024-04-21T09:36:56.301Z,-1.00
2024-04-21T09:39:24.861Z,-1.00
2024-04-21T09:41:55.370Z,-1.00
2024-04-21T09:44:23.378Z,-1.00
2024-04-21T09:46:51.406Z,-1.00
2024-04-21T09:49:20.072Z,-1.00
2024-04-21T09:51:49.502Z,-1.00
2024-04-21T09:54:20.701Z,-1.00
2024-04-21T09:56:53.017Z,-1.00
2024-04-21T09:59:23.623Z,-1.00
2024-04-21T10:03:38.898Z,98940.17
2024-04-21T10:06:07.924Z,98943.30
2024-04-21T10:08:37.323Z,98944.70
2024-04-21T10:11:04.888Z,98941.66
2024-04-21T10:13:33.105Z,98939.70
2024-04-21T10:16:00.959Z,98935.41
2024-04-21T10:18:28.832Z,98938.52
2024-04-21T10:20:56.668Z,98938.73
2024-04-21T10:23:24.238Z,98933.70
2024-04-21T10:25:53.797Z,98935.75
2024-04-21T10:28:28.144Z,98933.88
2024-04-21T10:31:06.160Z,98928.64
2024-04-21T10:33:34.632Z,98932.17
2024-04-21T10:36:02.203Z,98929.60
2024-04-21T10:38:29.764Z,98938.14
2024-04-21T10:40:58.481Z,98932.50
2024-04-21T10:43:26.922Z,98940.38
2024-04-21T10:46:01.222Z,98939.21
2024-04-21T10:48:28.964Z,98940.30
2024-04-21T10:50:57.582Z,98938.16
2024-04-21T10:53:25.389Z,98940.16
2024-04-21T10:55:55.211Z,98939.85
2024-04-21T10:58:23.302Z,98942.48
2024-04-21T11:00:51.152Z,98940.41
2024-04-21T11:03:18.846Z,98939.63
2024-04-21T11:06:01.556Z,98942.89
2024-04-21T11:08:29.501Z,98943.23
2024-04-21T11:10:57.576Z,98944.56
2024-04-21T11:13:25.341Z,98947.87
2024-04-21T11:15:53.038Z,98949.41
2024-04-21T11:18:20.828Z,98952.00
2024-04-21T11:20:48.750Z,98948.55
2024-04-21T11:23:19.948Z,98954.64
2024-04-21T11:25:47.638Z,98951.31
2024-04-21T11:28:17.979Z,98953.30
2024-04-21T11:30:45.819Z,98950.30
2024-04-21T11:33:13.405Z,98952.29
2024-04-21T11:38:09.550Z,98956.91
2024-04-21T11:40:40.514Z,98962.53
2024-04-21T11:43:11.530Z,98961.52
2024-04-21T11:45:43.444Z,98964.02
2024-04-21T11:48:11.201Z,98967.21
2024-04-21T11:50:39.212Z,98969.46
2024-04-21T11:53:07.689Z,98962.20
2024-04-21T11:55:35.893Z,98962.25
2024-04-21T11:58:05.174Z,98960.11
2024-04-21T12:00:32.947Z,98961.82
2024-04-21T12:03:00.679Z,98958.77
2024-04-21T12:05:28.337Z,98953.52
2024-04-21T12:07:55.863Z,98957.46
2024-04-21T12:10:23.710Z,98959.91
2024-04-21T12:12:51.383Z,98955.90
2024-04-21T12:15:19.814Z,98958.75
2024-04-21T12:17:47.533Z,98955.98
2024-04-21T12:20:15.942Z,98953.52
2024-04-21T12:22:49.773Z,98949.48
2024-04-21T12:25:17.518Z,98947.71
2024-04-21T12:27:45.261Z,98943.30
2024-04-21T12:30:13.370Z,98947.84
2024-04-21T12:32:41.004Z,98943.80
2024-04-21T12:35:08.500Z,98948.76
2024-04-21T12:37:36.058Z,98942.92
2024-04-21T12:40:03.883Z,98940.11
2024-04-21T12:42:31.384Z,98940.48
2024-04-21T12:44:59.003Z,98943.05
2024-04-21T12:47:26.516Z,98945.04
2024-04-21T12:49:54.059Z,98946.84
2024-04-21T12:52:21.739Z,98946.23
2024-04-21T12:54:49.179Z,98942.45
2024-04-21T12:57:16.793Z,98942.79
2024-04-21T12:59:46.229Z,98942.80
2024-04-21T13:02:17.990Z,98945.00
2024-04-21T13:04:46.191Z,98940.35
2024-04-21T13:07:13.840Z,98939.04
2024-04-21T13:09:41.394Z,98941.27
2024-04-21T13:12:09.087Z,98944.67
2024-04-21T13:14:36.908Z,98942.38
2024-04-21T13:17:04.556Z,98940.52
2024-04-21T13:19:32.159Z,98941.76
2024-04-21T13:22:00.441Z,98938.28
2024-04-21T13:24:27.992Z,98938.44
2024-04-21T13:26:55.481Z,98937.45
2024-04-21T13:29:23.065Z,98940.90
2024-04-21T13:31:50.703Z,98939.89
2024-04-21T13:34:18.716Z,98938.61
2024-04-21T13:36:46.177Z,98939.31
2024-04-21T13:39:13.690Z,98944.98
2024-04-21T13:41:41.230Z,98938.98
2024-04-21T13:44:08.678Z,98939.30
2024-04-21T13:46:36.403Z,98937.16
2024-04-21T13:49:04.109Z,98933.79
2024-04-21T13:51:33.234Z,98933.73
2024-04-21T13:54:01.769Z,98932.48
2024-04-21T13:56:29.510Z,98933.48
2024-04-21T13:58:57.127Z,98930.44
2024-04-21T14:01:24.943Z,98934.06
2024-04-21T14:03:52.605Z,98936.50
2024-04-21T14:06:21.886Z,98938.91
2024-04-21T14:08:50.258Z,98944.11
2024-04-21T14:11:18.161Z,98942.14
2024-04-21T14:13:45.933Z,98939.52
2024-04-21T14:16:13.553Z,98944.08
2024-04-21T14:18:41.396Z,98948.72
2024-04-21T14:21:08.938Z,98953.93
2024-04-21T14:23:36.373Z,98949.73
2024-04-21T14:26:04.133Z,98953.46
2024-04-21T14:28:33.041Z,98951.29
2024-04-21T14:31:01.265Z,98952.02
2024-04-21T14:33:29.133Z,98956.52
2024-04-21T14:35:56.915Z,98958.76
2024-04-21T14:38:24.633Z,98958.97
2024-04-21T14:40:52.268Z,98960.49
2024-04-21T14:43:21.485Z,98960.63
2024-04-21T14:45:49.350Z,98964.59
2024-04-21T14:48:18.696Z,98967.98
2024-04-21T14:51:08.171Z,98962.81
2024-04-21T14:53:35.666Z,98964.48
2024-04-21T14:56:06.986Z,98965.76
2024-04-21T14:58:34.599Z,98964.73
2024-04-21T15:01:02.430Z,98967.79
2024-04-21T15:03:30.136Z,98971.97
2024-04-21T15:05:57.837Z,98968.20
2024-04-21T15:08:25.388Z,98970.69
2024-04-21T15:10:52.890Z,98966.60
2024-04-21T15:13:20.600Z,98970.22
2024-04-21T15:15:48.175Z,98968.03
2024-04-21T15:18:15.747Z,98967.98
2024-04-21T15:20:47.065Z,98970.88
2024-04-21T15:23:14.694Z,98965.23
2024-04-21T15:25:44.343Z,98960.60
2024-04-21T15:28:12.043Z,98958.03
2024-04-21T15:30:39.615Z,98955.45
2024-04-21T15:33:07.216Z,98955.81
2024-04-21T15:35:34.972Z,98960.35
2024-04-21T15:38:02.543Z,98955.46
2024-04-21T15:40:30.111Z,98961.90
2024-04-21T15:42:57.752Z,98960.27
2024-04-21T15:45:25.376Z,98961.85
2024-04-21T15:47:52.997Z,98961.55
2024-04-21T15:50:20.531Z,98966.38
2024-04-21T15:52:48.099Z,98963.16
2024-04-21T15:55:16.395Z,98960.37
2024-04-21T15:57:43.964Z,98961.88
2024-04-21T16:00:12.283Z,98961.55
2024-04-21T16:02:39.989Z,98962.16
2024-04-21T16:05:08.592Z,98967.00
2024-04-21T16:07:36.153Z,98967.45
2024-04-21T16:10:04.222Z,98968.65
2024-04-21T16:12:31.773Z,98967.61
2024-04-21T16:14:59.483Z,98974.07
2024-04-21T16:17:27.240Z,98974.42
2024-04-21T16:19:54.848Z,98974.96
2024-04-21T16:22:22.360Z,98980.45
2024-04-21T16:24:49.940Z,98987.05
2024-04-21T16:27:17.537Z,98993.13
2024-04-21T16:29:45.215Z,98997.70
2024-04-21T16:32:12.683Z,99004.15
2024-04-21T16:34:40.639Z,99004.33
2024-04-21T16:37:09.663Z,99006.45
2024-04-21T16:39:37.619Z,99009.77
2024-04-21T16:42:05.589Z,99010.45
2024-04-21T16:44:33.271Z,99012.88
2024-04-21T16:47:01.826Z,99013.54
2024-04-21T16:49:29.829Z,99015.72
2024-04-21T16:51:58.362Z,99013.02
2024-04-21T16:54:26.875Z,99016.79
2024-04-21T16:57:06.933Z,99010.77
2024-04-21T16:59:42.986Z,99012.36
2024-04-21T17:02:10.726Z,99014.73
2024-04-21T17:04:41.663Z,99015.35
2024-04-21T17:07:10.706Z,99019.45
2024-04-21T17:09:38.856Z,99021.23
2024-04-21T17:12:06.638Z,99018.11
2024-04-21T17:14:34.058Z,99019.48
2024-04-21T17:17:01.670Z,99024.11
2024-04-21T17:19:30.311Z,99026.40
2024-04-21T17:21:57.989Z,99026.42
2024-04-21T17:24:25.501Z,99028.75
2024-04-21T17:26:53.076Z,99030.35
2024-04-21T17:29:21.285Z,99030.60
2024-04-21T17:31:48.799Z,99031.72
2024-04-21T17:34:19.421Z,99030.19
2024-04-21T17:36:47.552Z,99031.02
2024-04-21T17:39:15.038Z,99034.60
2024-04-21T17:41:42.558Z,99039.77
2024-04-21T17:44:10.097Z,99044.32
2024-04-21T17:46:38.330Z,99047.13
2024-04-21T17:49:06.643Z,99050.86
2024-04-21T17:51:34.439Z,99051.16
2024-04-21T17:54:01.980Z,99053.55
2024-04-21T17:56:29.583Z,99060.73
2024-04-21T17:58:57.363Z,99070.00
2024-04-21T18:01:27.535Z,99069.33
2024-04-21T18:03:55.168Z,99069.27
2024-04-21T18:06:22.829Z,99070.39
2024-04-21T18:08:50.465Z,99072.89
2024-04-21T18:11:21.109Z,99077.64
2024-04-21T18:13:48.691Z,99085.91
2024-04-21T18:16:16.384Z,99087.34
2024-04-21T18:18:44.111Z,99088.42
2024-04-21T18:21:12.588Z,99094.92
2024-04-21T18:23:40.255Z,99095.92
2024-04-21T18:26:07.918Z,99094.44
2024-04-21T18:28:35.715Z,99095.77
2024-04-21T18:31:03.563Z,99091.70
2024-04-21T18:33:31.683Z,99088.69
2024-04-21T18:35:59.628Z,99088.48
2024-04-21T18:38:27.250Z,99089.83
2024-04-21T18:40:56.386Z,99091.32
2024-04-21T18:43:23.974Z,99087.60
2024-04-21T18:45:51.472Z,99092.31
2024-04-21T18:48:19.045Z,99095.80
2024-04-21T18:50:47.493Z,99094.38
2024-04-21T18:53:17.144Z,99099.67
2024-04-21T18:55:44.720Z,99099.96
2024-04-21T18:58:13.175Z,99100.13
2024-04-21T19:00:40.990Z,99099.88
2024-04-21T19:03:08.692Z,99097.67
2024-04-21T19:05:42.595Z,99097.23
2024-04-21T19:08:10.768Z,99096.94
2024-04-21T19:10:39.325Z,99097.77
2024-04-21T19:13:07.918Z,99101.38
2024-04-21T19:15:35.845Z,99100.21
2024-04-21T19:18:03.784Z,99100.77
2024-04-21T19:20:31.795Z,99103.23
2024-04-21T19:22:59.541Z,99102.06
2024-04-21T19:25:28.459Z,99104.93
2024-04-21T19:27:56.271Z,99102.65
2024-04-21T19:30:23.814Z,99104.66
2024-04-21T19:32:51.350Z,99104.67
2024-04-21T19:35:18.937Z,99102.22
2024-04-21T19:37:46.415Z,99104.75
2024-04-21T19:40:14.026Z,99108.27
2024-04-21T19:42:44.158Z,99108.96
2024-04-21T19:45:11.742Z,99105.60
2024-04-21T19:47:39.331Z,99106.20
2024-04-21T19:50:07.214Z,99107.47
2024-04-21T19:52:38.874Z,99103.27
2024-04-21T19:55:07.767Z,99106.02
2024-04-21T19:57:38.867Z,99102.73
2024-04-21T20:00:07.968Z,99103.48
2024-04-21T20:02:36.499Z,99101.89
2024-04-21T20:05:05.136Z,99108.77
2024-04-21T20:07:36.445Z,99107.48
2024-04-21T20:10:05.105Z,99105.59
2024-04-21T20:12:33.031Z,99105.62
2024-04-21T20:15:19.239Z,99100.77
2024-04-21T20:18:05.268Z,99098.70
2024-04-21T20:20:33.016Z,99101.20
2024-04-21T20:23:00.812Z,99099.81
2024-04-21T20:25:28.409Z,99100.34
2024-04-21T20:27:55.843Z,99100.86
2024-04-21T20:30:23.363Z,99094.15
2024-04-21T20:32:50.794Z,99095.52
2024-04-21T20:35:18.707Z,99093.70
2024-04-21T20:37:46.227Z,99092.29
2024-04-21T20:40:14.399Z,99093.13
2024-04-21T20:42:41.855Z,99095.95
2024-04-21T20:45:09.306Z,99097.59
2024-04-21T20:47:36.883Z,99100.30
2024-04-21T20:50:04.648Z,99100.13
2024-04-21T20:52:34.287Z,99098.08
2024-04-21T20:55:01.796Z,99103.41
2024-04-21T20:57:31.541Z,99103.61
2024-04-21T20:59:59.208Z,99106.25
2024-04-21T21:02:26.905Z,99107.71
2024-04-21T21:04:54.621Z,99106.55
2024-04-21T21:07:22.295Z,99102.96
2024-04-21T21:09:49.918Z,99099.73
2024-04-21T21:12:17.339Z,99097.85
2024-04-21T21:14:44.915Z,99097.98
2024-04-21T21:17:12.529Z,99101.81
2024-04-21T21:19:40.232Z,99102.58
2024-04-21T21:22:07.825Z,99099.85
2024-04-21T21:24:35.363Z,99105.05
2024-04-21T21:27:02.991Z,99102.79
2024-04-21T21:29:30.524Z,99102.13
2024-04-21T21:31:58.084Z,99103.79
2024-04-21T21:34:26.198Z,99099.63
2024-04-21T21:36:53.700Z,99097.58
2024-04-21T21:39:21.221Z,99095.98
2024-04-21T21:41:48.786Z,99092.38
2024-04-21T21:44:16.247Z,99093.45
2024-04-21T21:46:43.784Z,99089.48
2024-04-21T21:49:11.338Z,99090.21
2024-04-21T21:51:39.098Z,99093.07
2024-04-21T21:54:06.576Z,99094.10
2024-04-21T21:56:34.007Z,99097.68
2024-04-21T21:59:01.567Z,99101.30
2024-04-21T22:01:29.320Z,99101.00
2024-04-21T22:03:57.016Z,99098.88
2024-04-21T22:06:24.507Z,99101.89
2024-04-21T22:08:52.088Z,99097.99
2024-04-21T22:11:19.611Z,99103.19
2024-04-21T22:13:48.504Z,99102.65
2024-04-21T22:16:37.021Z,99104.89
2024-04-21T22:19:05.054Z,99106.91
2024-04-21T22:21:32.575Z,99108.66
2024-04-21T22:24:00.141Z,99107.16
2024-04-21T22:26:27.605Z,99104.19
2024-04-21T22:28:55.288Z,99103.66
2024-04-21T22:31:23.556Z,99098.71
2024-04-21T22:33:51.043Z,99094.59
2024-04-21T22:36:18.580Z,99092.70
2024-04-21T22:38:46.074Z,99087.45
2024-04-21T22:41:13.612Z,99080.77
2024-04-21T22:43:41.147Z,99078.13
2024-04-21T22:46:09.677Z,99081.84
2024-04-21T22:48:38.266Z,99084.55
2024-04-21T22:51:06.297Z,99086.67
2024-04-21T22:53:34.514Z,99088.21
2024-04-21T22:56:02.206Z,99085.84
2024-04-21T22:58:30.036Z,99083.05
2024-04-21T23:00:57.827Z,99086.05
2024-04-21T23:03:25.610Z,99082.19
2024-04-21T23:06:00.125Z,99088.80
2024-04-21T23:08:39.623Z,99090.52
2024-04-21T23:11:07.261Z,99088.95
2024-04-21T23:13:34.834Z,99089.73
2024-04-21T23:16:05.895Z,99091.20
2024-04-21T23:18:33.533Z,99089.02
2024-04-21T23:21:01.082Z,99092.77
2024-04-21T23:23:28.614Z,99089.40
2024-04-21T23:25:56.150Z,99091.36
2024-04-21T23:28:23.807Z,99087.66
2024-04-21T23:30:51.320Z,99083.08
2024-04-21T23:33:18.916Z,99082.09
2024-04-21T23:35:46.618Z,99081.00
2024-04-21T23:38:14.196Z,99077.66
2024-04-21T23:40:41.763Z,99075.34
2024-04-21T23:43:09.340Z,99080.41
2024-04-21T23:45:40.556Z,99076.00
2024-04-21T23:48:08.254Z,99073.69
2024-04-21T23:50:35.858Z,99075.00
2024-04-21T23:53:03.456Z,99072.98
2024-04-21T23:55:31.008Z,99077.40
2024-04-21T23:57:58.537Z,99077.56
